createdAt,value
2023-05-05T00:00:21.050Z,5.57
2023-05-05T00:01:24.034Z,5.47
2023-05-05T00:02:27.647Z,6.47
2023-05-05T00:03:30.422Z,5.97
2023-05-05T00:04:34.007Z,6.15
2023-05-05T00:05:37.398Z,5.67
2023-05-05T00:06:40.966Z,6.00
2023-05-05T00:07:43.434Z,6.53
2023-05-05T00:08:48.992Z,6.25
2023-05-05T00:09:51.782Z,6.00
2023-05-05T00:10:56.147Z,5.47
2023-05-05T00:11:58.395Z,5.75
2023-05-05T00:13:02.208Z,5.40
2023-05-05T00:14:04.833Z,5.65
2023-05-05T00:15:10.435Z,5.72
2023-05-05T00:16:12.834Z,5.33
2023-05-05T00:17:17.632Z,6.10
2023-05-05T00:18:21.414Z,6.22
2023-05-05T00:19:25.391Z,5.72
2023-05-05T00:20:27.992Z,5.70
2023-05-05T00:21:31.984Z,5.63
2023-05-05T00:22:34.718Z,5.35
2023-05-05T00:23:38.571Z,5.90
2023-05-05T00:24:42.677Z,5.50
2023-05-05T00:25:48.840Z,5.50
2023-05-05T00:26:51.637Z,5.47
2023-05-05T00:27:58.207Z,5.28
2023-05-05T00:29:05.172Z,5.32
2023-05-05T00:30:13.845Z,5.13
2023-05-05T00:31:17.806Z,5.40
2023-05-05T00:32:22.820Z,5.22
2023-05-05T00:33:26.977Z,5.32
2023-05-05T00:34:32.203Z,4.95
2023-05-05T00:35:35.288Z,5.35
2023-05-05T00:36:38.977Z,5.00
2023-05-05T00:37:41.642Z,5.43
2023-05-05T00:38:45.380Z,5.20
2023-05-05T00:39:49.792Z,5.55
2023-05-05T00:40:54.509Z,5.07
2023-05-05T00:41:57.068Z,5.28
2023-05-05T00:43:00.928Z,5.20
2023-05-05T00:44:03.622Z,5.28
2023-05-05T00:45:08.928Z,4.80
2023-05-05T00:46:22.226Z,5.07
2023-05-05T00:47:26.149Z,4.90
2023-05-05T00:48:30.244Z,4.70
2023-05-05T00:49:35.021Z,5.35
2023-05-05T00:50:38.969Z,5.25
2023-05-05T00:51:42.759Z,5.07
2023-05-05T00:52:45.375Z,4.80
2023-05-05T00:53:50.198Z,4.95
2023-05-05T00:54:54.921Z,5.18
2023-05-05T00:55:58.880Z,4.55
2023-05-05T00:57:02.350Z,4.70
2023-05-05T00:58:07.083Z,4.65
2023-05-05T00:59:10.052Z,5.00
2023-05-05T01:00:14.515Z,4.82
2023-05-05T01:01:18.595Z,4.63
2023-05-05T01:02:22.868Z,4.63
2023-05-05T01:03:25.664Z,4.57
2023-05-05T01:04:29.915Z,4.80
2023-05-05T01:05:47.166Z,4.70
2023-05-05T01:07:05.384Z,4.57
2023-05-05T01:08:24.481Z,4.63
2023-05-05T01:09:40.975Z,4.60
2023-05-05T01:10:49.385Z,4.63
2023-05-05T01:12:01.836Z,4.75
2023-05-05T01:13:21.647Z,3.95
2023-05-05T01:14:30.602Z,4.65
2023-05-05T01:15:36.866Z,4.50
2023-05-05T01:16:45.953Z,4.40
2023-05-05T01:17:56.238Z,3.75
2023-05-05T01:19:12.376Z,4.25
2023-05-05T01:20:24.123Z,4.07
2023-05-05T01:21:32.353Z,4.10
2023-05-05T01:22:40.236Z,4.10
2023-05-05T01:24:12.404Z,4.00
2023-05-05T01:25:48.213Z,4.95
2023-05-05T01:27:08.022Z,4.15
2023-05-05T01:28:29.389Z,3.92
2023-05-05T01:30:05.788Z,4.15
2023-05-05T01:31:24.265Z,4.47
2023-05-05T01:32:33.227Z,4.00
2023-05-05T01:33:42.129Z,4.05
2023-05-05T01:34:54.662Z,4.35
2023-05-05T01:36:03.731Z,4.17
2023-05-05T01:37:13.469Z,4.00
2023-05-05T01:38:18.866Z,3.95
2023-05-05T01:39:25.880Z,4.00
2023-05-05T01:40:34.024Z,3.60
2023-05-05T01:41:43.264Z,4.18
2023-05-05T01:42:46.384Z,4.13
2023-05-05T01:43:52.986Z,4.10
2023-05-05T01:44:57.445Z,4.43
2023-05-05T01:46:02.408Z,4.10
2023-05-05T01:47:06.929Z,3.67
2023-05-05T01:48:13.036Z,3.60
2023-05-05T01:49:16.574Z,3.70
2023-05-05T01:50:21.040Z,3.85
2023-05-05T01:51:27.348Z,4.30
2023-05-05T01:52:31.789Z,3.65
2023-05-05T01:53:36.767Z,3.85
2023-05-05T01:54:41.750Z,3.45
2023-05-05T01:55:46.658Z,3.63
2023-05-05T01:56:52.163Z,4.03
2023-05-05T01:57:58.979Z,4.30
2023-05-05T01:59:03.336Z,3.58
2023-05-05T02:00:10.136Z,3.40
2023-05-05T02:01:15.004Z,3.63
2023-05-05T02:02:20.630Z,3.63
2023-05-05T02:03:27.807Z,3.33
2023-05-05T02:04:32.435Z,3.80
2023-05-05T02:05:38.765Z,3.83
2023-05-05T02:06:43.409Z,3.38
2023-05-05T02:07:48.092Z,3.70
2023-05-05T02:08:53.155Z,3.87
2023-05-05T02:09:58.284Z,3.78
2023-05-05T02:11:02.040Z,3.97
2023-05-05T02:12:07.672Z,3.40
2023-05-05T02:13:13.587Z,3.70
2023-05-05T02:14:22.908Z,3.30
2023-05-05T02:15:28.334Z,4.03
2023-05-05T02:16:32.765Z,4.10
2023-05-05T02:17:35.891Z,3.50
2023-05-05T02:18:44.026Z,3.60
2023-05-05T02:19:49.344Z,4.07
2023-05-05T02:20:53.467Z,4.07
2023-05-05T02:21:57.250Z,3.80
2023-05-05T02:23:00.070Z,3.72
2023-05-05T02:24:04.283Z,3.80
2023-05-05T02:25:08.029Z,3.40
2023-05-05T02:26:15.503Z,3.95
2023-05-05T02:27:22.124Z,3.10
2023-05-05T02:28:34.941Z,3.80
2023-05-05T02:29:48.072Z,3.45
2023-05-05T02:30:58.393Z,3.27
2023-05-05T02:32:05.805Z,3.58
2023-05-05T02:33:12.837Z,3.42
2023-05-05T02:34:24.940Z,3.85
2023-05-05T02:35:35.932Z,3.25
2023-05-05T02:36:42.706Z,3.67
2023-05-05T02:37:52.136Z,3.60
2023-05-05T02:39:00.029Z,3.70
2023-05-05T02:40:06.260Z,3.50
2023-05-05T02:41:12.706Z,3.28
2023-05-05T02:42:20.175Z,3.67
2023-05-05T02:43:24.986Z,3.40
2023-05-05T02:44:30.829Z,3.53
2023-05-05T02:45:33.393Z,4.07
2023-05-05T02:46:39.875Z,3.40
2023-05-05T02:47:42.588Z,3.63
2023-05-05T02:48:47.280Z,3.30
2023-05-05T02:49:51.579Z,3.30
2023-05-05T02:50:55.485Z,3.17
2023-05-05T02:51:58.216Z,3.67
2023-05-05T02:53:02.396Z,3.40
2023-05-05T02:54:05.342Z,3.28
2023-05-05T02:55:10.633Z,3.30
2023-05-05T02:56:23.425Z,3.58
2023-05-05T02:57:35.723Z,3.40
2023-05-05T02:58:46.743Z,3.60
2023-05-05T02:59:58.802Z,3.50
2023-05-05T03:01:11.360Z,3.50
2023-05-05T03:02:19.817Z,3.38
2023-05-05T03:03:29.105Z,3.50
2023-05-05T03:04:41.586Z,3.43
2023-05-05T03:05:51.606Z,3.83
2023-05-05T03:06:59.900Z,3.40
2023-05-05T03:08:06.153Z,3.75
2023-05-05T03:09:14.505Z,4.18
2023-05-05T03:10:21.802Z,3.78
2023-05-05T03:11:30.919Z,3.60
2023-05-05T03:12:38.725Z,3.67
2023-05-05T03:13:44.280Z,3.53
2023-05-05T03:14:49.303Z,3.92
2023-05-05T03:15:54.940Z,3.13
2023-05-05T03:16:57.865Z,3.50
2023-05-05T03:18:03.753Z,4.03
2023-05-05T03:19:09.043Z,3.17
2023-05-05T03:20:17.090Z,3.38
2023-05-05T03:21:21.421Z,3.50
2023-05-05T03:22:27.548Z,5.28
2023-05-05T03:23:32.417Z,3.10
2023-05-05T03:24:35.980Z,3.35
2023-05-05T03:25:46.267Z,3.30
2023-05-05T03:26:51.528Z,3.10
2023-05-05T03:27:54.916Z,3.40
2023-05-05T03:28:58.470Z,3.40
2023-05-05T03:30:01.072Z,3.33
2023-05-05T03:31:05.051Z,3.38
2023-05-05T03:32:08.641Z,3.67
2023-05-05T03:33:12.685Z,3.40
2023-05-05T03:34:16.118Z,3.20
2023-05-05T03:35:20.084Z,3.20
2023-05-05T03:36:27.184Z,3.35
2023-05-05T03:37:31.234Z,3.40
2023-05-05T03:38:34.660Z,3.50
2023-05-05T03:39:37.211Z,3.45
2023-05-05T03:40:44.623Z,3.70
2023-05-05T03:41:47.468Z,3.15
2023-05-05T03:42:51.136Z,3.67
2023-05-05T03:43:54.062Z,3.28
2023-05-05T03:44:57.709Z,3.35
2023-05-05T03:46:00.426Z,3.60
2023-05-05T03:47:04.122Z,3.50
2023-05-05T03:48:07.257Z,3.33
2023-05-05T03:49:10.944Z,3.60
2023-05-05T03:50:13.530Z,3.20
2023-05-05T03:51:17.249Z,3.80
2023-05-05T03:52:21.216Z,3.28
2023-05-05T03:53:25.093Z,3.33
2023-05-05T03:54:27.631Z,3.50
2023-05-05T03:55:31.255Z,3.60
2023-05-05T03:56:33.847Z,3.40
2023-05-05T03:57:37.880Z,3.55
2023-05-05T03:58:40.718Z,3.43
2023-05-05T03:59:44.495Z,3.53
2023-05-05T04:00:46.978Z,2.92
2023-05-05T04:01:50.601Z,3.22
2023-05-05T04:02:53.222Z,3.30
2023-05-05T04:03:57.810Z,3.25
2023-05-05T04:05:00.653Z,3.38
2023-05-05T04:06:04.857Z,3.10
2023-05-05T04:07:07.535Z,3.22
2023-05-05T04:08:12.724Z,3.70
2023-05-05T04:09:15.638Z,3.47
2023-05-05T04:10:20.348Z,3.33
2023-05-05T04:11:23.233Z,2.85
2023-05-05T04:12:27.177Z,3.10
2023-05-05T04:13:30.002Z,3.15
2023-05-05T04:14:34.312Z,3.47
2023-05-05T04:15:37.560Z,2.67
2023-05-05T04:16:41.907Z,3.40
2023-05-05T04:17:44.755Z,3.22
2023-05-05T04:18:48.693Z,3.13
2023-05-05T04:19:51.953Z,3.00
2023-05-05T04:20:56.054Z,3.40
2023-05-05T04:21:59.554Z,2.95
2023-05-05T04:23:03.853Z,2.95
2023-05-05T04:24:08.608Z,3.17
2023-05-05T04:25:12.680Z,3.20
2023-05-05T04:26:15.656Z,3.05
2023-05-05T04:27:19.858Z,3.20
2023-05-05T04:28:22.525Z,2.72
2023-05-05T04:29:26.317Z,3.03
2023-05-05T04:30:29.290Z,3.27
2023-05-05T04:31:33.433Z,2.65
2023-05-05T04:32:36.411Z,2.90
2023-05-05T04:33:40.476Z,3.63
2023-05-05T04:34:43.189Z,2.90
2023-05-05T04:35:47.269Z,3.08
2023-05-05T04:36:50.683Z,3.00
2023-05-05T04:37:55.116Z,2.88
2023-05-05T04:38:58.144Z,3.03
2023-05-05T04:40:04.059Z,2.95
2023-05-05T04:41:07.399Z,3.47
2023-05-05T04:42:11.561Z,3.33
2023-05-05T04:43:14.844Z,2.97
2023-05-05T04:44:18.477Z,3.45
2023-05-05T04:45:21.313Z,2.80
2023-05-05T04:46:26.401Z,2.80
2023-05-05T04:47:31.277Z,3.22
2023-05-05T04:48:34.561Z,2.70
2023-05-05T04:49:38.749Z,3.22
2023-05-05T04:50:41.212Z,3.10
2023-05-05T04:51:44.636Z,3.37
2023-05-05T04:52:46.997Z,3.40
2023-05-05T04:53:50.852Z,3.30
2023-05-05T04:54:53.257Z,2.83
2023-05-05T04:55:58.292Z,3.60
2023-05-05T04:57:00.653Z,3.60
2023-05-05T04:58:04.315Z,3.40
2023-05-05T04:59:06.649Z,3.58
2023-05-05T05:00:11.353Z,3.47
2023-05-05T05:01:14.397Z,3.63
2023-05-05T05:02:18.485Z,3.90
2023-05-05T05:03:21.216Z,3.38
2023-05-05T05:04:26.108Z,3.70
2023-05-05T05:05:29.677Z,3.28
2023-05-05T05:06:32.609Z,3.65
2023-05-05T05:07:36.216Z,2.95
2023-05-05T05:08:38.730Z,3.28
2023-05-05T05:09:42.371Z,3.28
2023-05-05T05:10:45.450Z,3.40
2023-05-05T05:11:50.550Z,3.13
2023-05-05T05:12:53.370Z,3.37
2023-05-05T05:13:57.090Z,2.80
2023-05-05T05:14:59.660Z,2.97
2023-05-05T05:16:03.994Z,3.22
2023-05-05T05:17:07.150Z,3.20
2023-05-05T05:18:10.934Z,2.90
2023-05-05T05:19:14.061Z,3.13
2023-05-05T05:20:17.722Z,3.00
2023-05-05T05:21:20.547Z,3.38
2023-05-05T05:22:24.441Z,3.35
2023-05-05T05:23:26.902Z,3.17
2023-05-05T05:24:30.657Z,2.88
2023-05-05T05:25:33.174Z,2.85
2023-05-05T05:26:36.795Z,3.33
2023-05-05T05:27:41.898Z,2.90
2023-05-05T05:28:45.622Z,2.92
2023-05-05T05:29:48.126Z,2.80
2023-05-05T05:30:52.250Z,2.83
2023-05-05T05:31:55.087Z,2.90
2023-05-05T05:32:58.667Z,3.10
2023-05-05T05:34:01.258Z,2.97
2023-05-05T05:35:04.863Z,2.95
2023-05-05T05:36:07.537Z,2.85
2023-05-05T05:37:11.381Z,3.30
2023-05-05T05:38:13.936Z,3.35
2023-05-05T05:39:18.298Z,3.15
2023-05-05T05:40:21.417Z,3.00
2023-05-05T05:41:25.886Z,2.95
2023-05-05T05:42:28.370Z,3.30
2023-05-05T05:43:33.552Z,3.03
2023-05-05T05:44:36.720Z,2.73
2023-05-05T05:45:40.657Z,3.38
2023-05-05T05:46:43.534Z,3.25
2023-05-05T05:47:47.303Z,3.97
2023-05-05T05:48:50.000Z,4.43
2023-05-05T05:49:54.717Z,4.07
2023-05-05T05:50:57.833Z,4.20
2023-05-05T05:52:01.484Z,4.60
2023-05-05T05:53:04.671Z,3.83
2023-05-05T05:54:09.185Z,3.85
2023-05-05T05:55:11.924Z,4.07
2023-05-05T05:56:15.547Z,3.28
2023-05-05T05:57:17.886Z,3.00
2023-05-05T05:58:21.450Z,3.22
2023-05-05T05:59:26.437Z,3.22
2023-05-05T06:00:28.990Z,3.10
2023-05-05T06:01:33.289Z,3.08
2023-05-05T06:02:35.888Z,3.45
2023-05-05T06:03:39.508Z,3.42
2023-05-05T06:04:42.447Z,3.40
2023-05-05T06:05:47.139Z,3.43
2023-05-05T06:06:49.978Z,3.00
2023-05-05T06:07:53.724Z,3.40
2023-05-05T06:08:56.228Z,3.20
2023-05-05T06:10:02.915Z,3.20
2023-05-05T06:11:11.112Z,3.42
2023-05-05T06:12:13.435Z,3.17
2023-05-05T06:13:16.832Z,3.15
2023-05-05T06:14:20.128Z,3.80
2023-05-05T06:15:26.052Z,3.53
2023-05-05T06:16:30.310Z,3.33
2023-05-05T06:17:32.632Z,3.65
2023-05-05T06:18:36.119Z,3.10
2023-05-05T06:19:40.067Z,3.80
2023-05-05T06:20:44.082Z,3.65
2023-05-05T06:21:46.611Z,3.72
2023-05-05T06:22:49.878Z,3.58
2023-05-05T06:23:53.199Z,4.32
2023-05-05T06:24:55.633Z,4.18
2023-05-05T06:25:59.524Z,4.28
2023-05-05T06:27:02.483Z,4.80
2023-05-05T06:28:07.339Z,4.72
2023-05-05T06:29:12.148Z,5.10
2023-05-05T06:30:16.278Z,5.10
2023-05-05T06:31:22.005Z,4.97
2023-05-05T06:32:24.791Z,4.10
2023-05-05T06:33:28.272Z,4.63
2023-05-05T06:34:30.554Z,4.95
2023-05-05T06:35:34.328Z,3.92
2023-05-05T06:36:37.221Z,4.25
2023-05-05T06:37:41.386Z,4.80
2023-05-05T06:38:43.727Z,4.60
2023-05-05T06:39:48.431Z,4.57
2023-05-05T06:40:53.084Z,4.70
2023-05-05T06:41:55.418Z,3.90
2023-05-05T06:42:58.963Z,4.45
2023-05-05T06:44:01.276Z,4.88
2023-05-05T06:45:06.473Z,4.95
2023-05-05T06:46:10.231Z,4.50
2023-05-05T06:47:14.599Z,4.10
2023-05-05T06:48:18.363Z,4.37
2023-05-05T06:49:21.185Z,4.28
2023-05-05T06:50:25.235Z,4.55
2023-05-05T06:51:29.237Z,4.25
2023-05-05T06:52:31.796Z,4.82
2023-05-05T06:53:35.928Z,4.63
2023-05-05T06:54:38.778Z,4.63
2023-05-05T06:55:46.472Z,4.07
2023-05-05T06:56:50.380Z,4.72
2023-05-05T06:57:53.748Z,4.65
2023-05-05T06:58:58.325Z,4.40
2023-05-05T07:00:01.230Z,4.38
2023-05-05T07:01:06.295Z,4.63
2023-05-05T07:02:10.064Z,4.40
2023-05-05T07:03:15.591Z,4.18
2023-05-05T07:04:19.165Z,4.13
2023-05-05T07:05:23.821Z,4.35
2023-05-05T07:06:27.811Z,4.15
2023-05-05T07:07:32.597Z,4.03
2023-05-05T07:08:36.160Z,4.18
2023-05-05T07:09:39.142Z,4.37
2023-05-05T07:10:42.936Z,4.80
2023-05-05T07:11:45.504Z,4.75
2023-05-05T07:12:49.366Z,4.40
2023-05-05T07:13:53.860Z,4.25
2023-05-05T07:14:58.290Z,4.25
2023-05-05T07:16:01.453Z,4.40
2023-05-05T07:17:05.273Z,4.22
2023-05-05T07:18:09.384Z,4.90
2023-05-05T07:19:15.045Z,3.97
2023-05-05T07:20:17.966Z,4.00
2023-05-05T07:21:21.860Z,4.80
2023-05-05T07:22:24.286Z,4.53
2023-05-05T07:23:28.155Z,4.25
2023-05-05T07:24:31.865Z,4.63
2023-05-05T07:25:35.507Z,4.30
2023-05-05T07:26:38.029Z,4.47
2023-05-05T07:27:42.098Z,4.70
2023-05-05T07:28:45.119Z,4.60
2023-05-05T07:29:49.461Z,4.43
2023-05-05T07:30:53.561Z,4.07
2023-05-05T07:31:56.259Z,4.90
2023-05-05T07:32:59.916Z,4.90
2023-05-05T07:34:04.183Z,5.00
2023-05-05T07:35:09.284Z,5.45
2023-05-05T07:36:13.202Z,5.45
2023-05-05T07:37:17.873Z,5.00
2023-05-05T07:38:22.300Z,4.70
2023-05-05T07:39:25.927Z,5.20
2023-05-05T07:40:29.768Z,5.47
2023-05-05T07:41:34.863Z,5.30
2023-05-05T07:42:37.673Z,4.95
2023-05-05T07:43:44.244Z,5.53
2023-05-05T07:44:47.728Z,5.13
2023-05-05T07:45:51.485Z,5.82
2023-05-05T07:46:54.286Z,5.80
2023-05-05T07:47:58.098Z,5.40
2023-05-05T07:49:01.928Z,5.75
2023-05-05T07:50:06.630Z,5.70
2023-05-05T07:51:12.330Z,5.38
2023-05-05T07:52:15.350Z,5.40
2023-05-05T07:53:19.119Z,5.30
2023-05-05T07:54:22.854Z,5.15
2023-05-05T07:55:25.630Z,5.30
2023-05-05T07:56:30.238Z,4.93
2023-05-05T07:57:36.605Z,4.70
2023-05-05T07:58:40.485Z,4.40
2023-05-05T07:59:44.230Z,4.78
2023-05-05T08:00:49.374Z,4.93
2023-05-05T08:01:53.677Z,4.55
2023-05-05T08:02:58.444Z,5.40
2023-05-05T08:04:02.274Z,4.38
2023-05-05T08:05:07.223Z,5.00
2023-05-05T08:06:12.963Z,5.13
2023-05-05T08:07:15.882Z,5.13
2023-05-05T08:08:19.630Z,4.95
2023-05-05T08:09:23.568Z,5.32
2023-05-05T08:10:27.460Z,5.38
2023-05-05T08:11:30.236Z,5.47
2023-05-05T08:12:33.989Z,5.25
2023-05-05T08:13:39.319Z,5.20
2023-05-05T08:14:42.870Z,5.10
2023-05-05T08:15:47.222Z,5.75
2023-05-05T08:16:50.023Z,4.72
2023-05-05T08:17:55.962Z,4.88
2023-05-05T08:19:00.292Z,4.53
2023-05-05T08:20:03.376Z,5.53
2023-05-05T08:21:07.729Z,5.55
2023-05-05T08:22:11.943Z,5.25
2023-05-05T08:23:15.633Z,5.40
2023-05-05T08:24:18.174Z,5.80
2023-05-05T08:25:21.975Z,5.50
2023-05-05T08:26:24.470Z,4.90
2023-05-05T08:27:28.045Z,5.18
2023-05-05T08:28:31.316Z,5.50
2023-05-05T08:29:34.682Z,5.45
2023-05-05T08:30:38.047Z,5.20
2023-05-05T08:31:42.931Z,5.20
2023-05-05T08:32:47.114Z,5.72
2023-05-05T08:33:50.642Z,5.03
2023-05-05T08:34:52.958Z,5.47
2023-05-05T08:35:56.628Z,5.05
2023-05-05T08:36:59.375Z,5.35
2023-05-05T08:38:04.658Z,5.60
2023-05-05T08:39:08.680Z,5.47
2023-05-05T08:40:15.174Z,5.30
2023-05-05T08:41:19.283Z,5.65
2023-05-05T08:42:36.328Z,6.10
2023-05-05T08:43:42.026Z,6.18
2023-05-05T08:44:44.997Z,5.70
2023-05-05T08:45:49.937Z,6.27
2023-05-05T08:46:53.645Z,6.13
2023-05-05T08:47:58.776Z,5.95
2023-05-05T08:49:05.440Z,6.32
2023-05-05T08:50:12.640Z,5.82
2023-05-05T08:51:21.682Z,5.82
2023-05-05T08:52:26.771Z,6.38
2023-05-05T08:53:48.774Z,6.47
2023-05-05T08:54:56.538Z,7.18
2023-05-05T08:56:02.898Z,6.47
2023-05-05T08:57:12.317Z,6.33
2023-05-05T08:58:19.211Z,7.18
2023-05-05T08:59:25.470Z,7.55
2023-05-05T09:00:28.946Z,7.35
2023-05-05T09:01:35.897Z,6.95
2023-05-05T09:02:40.876Z,6.65
2023-05-05T09:03:46.236Z,7.28
2023-05-05T09:04:50.159Z,7.00
2023-05-05T09:05:55.043Z,7.47
2023-05-05T09:06:58.731Z,6.95
2023-05-05T09:08:03.383Z,7.37
2023-05-05T09:09:10.524Z,7.43
2023-05-05T09:10:13.597Z,7.63
2023-05-05T09:11:17.491Z,7.53
2023-05-05T09:12:22.045Z,7.15
2023-05-05T09:13:25.901Z,8.55
2023-05-05T09:14:28.625Z,8.27
2023-05-05T09:15:33.390Z,8.68
2023-05-05T09:16:37.166Z,8.02
2023-05-05T09:17:40.677Z,7.75
2023-05-05T09:18:45.793Z,7.43
2023-05-05T09:20:04.490Z,7.72
2023-05-05T09:21:22.223Z,8.05
2023-05-05T09:22:37.139Z,8.10
2023-05-05T09:23:40.863Z,8.07
2023-05-05T09:24:55.413Z,8.07
2023-05-05T09:26:08.934Z,7.93
2023-05-05T09:27:24.712Z,7.70
2023-05-05T09:28:29.364Z,8.65
2023-05-05T09:29:33.611Z,8.15
2023-05-05T09:30:37.139Z,7.40
2023-05-05T09:31:41.273Z,8.70
2023-05-05T09:32:48.491Z,7.60
2023-05-05T09:33:52.149Z,7.88
2023-05-05T09:35:00.354Z,8.23
2023-05-05T09:36:04.055Z,7.65
2023-05-05T09:37:06.947Z,7.40
2023-05-05T09:38:13.845Z,6.65
2023-05-05T09:39:19.589Z,6.82
2023-05-05T09:40:25.466Z,7.18
2023-05-05T09:41:38.301Z,6.83
2023-05-05T09:42:42.606Z,6.07
2023-05-05T09:43:52.346Z,6.00
2023-05-05T09:44:59.733Z,5.80
2023-05-05T09:46:08.961Z,6.57
2023-05-05T09:47:25.970Z,5.82
2023-05-05T09:48:35.094Z,6.15
2023-05-05T09:49:40.028Z,5.88
2023-05-05T09:50:44.380Z,4.60
2023-05-05T09:51:49.300Z,5.55
2023-05-05T09:52:57.721Z,4.33
2023-05-05T09:54:00.538Z,4.38
2023-05-05T09:55:05.458Z,5.22
2023-05-05T09:56:11.613Z,5.10
2023-05-05T09:57:27.265Z,4.10
2023-05-05T09:58:34.786Z,5.07
2023-05-05T09:59:39.175Z,4.35
2023-05-05T10:00:43.572Z,4.00
2023-05-05T10:01:48.072Z,4.25
2023-05-05T10:02:50.902Z,4.00
2023-05-05T10:03:55.218Z,4.37
2023-05-05T10:05:11.534Z,4.20
2023-05-05T10:06:15.297Z,3.80
2023-05-05T10:07:25.420Z,4.50
2023-05-05T10:08:31.667Z,4.70
2023-05-05T10:09:34.272Z,4.22
2023-05-05T10:10:38.924Z,4.47
2023-05-05T10:11:45.341Z,4.43
2023-05-05T10:12:50.163Z,4.55
2023-05-05T10:13:53.082Z,4.75
2023-05-05T10:14:58.504Z,4.57
2023-05-05T10:16:04.681Z,4.65
2023-05-05T10:17:10.015Z,4.93
2023-05-05T10:18:16.179Z,5.10
2023-05-05T10:19:21.584Z,5.78
2023-05-05T10:20:27.830Z,5.00
2023-05-05T10:21:35.614Z,4.90
2023-05-05T10:22:41.012Z,5.10
2023-05-05T10:23:49.977Z,4.95
2023-05-05T10:24:58.453Z,5.03
2023-05-05T10:26:05.045Z,4.97
2023-05-05T10:27:16.869Z,5.05
2023-05-05T10:28:28.963Z,4.97
2023-05-05T10:29:39.779Z,5.10
2023-05-05T10:30:47.933Z,4.93
2023-05-05T10:31:54.913Z,5.40
2023-05-05T10:33:27.123Z,5.47
2023-05-05T10:34:39.294Z,4.80
2023-05-05T10:35:44.731Z,4.82
2023-05-05T10:36:50.745Z,4.30
2023-05-05T10:37:54.641Z,4.93
2023-05-05T10:38:58.941Z,4.50
2023-05-05T10:40:02.576Z,4.18
2023-05-05T10:41:07.159Z,4.10
2023-05-05T10:42:13.928Z,5.32
2023-05-05T10:43:18.433Z,3.97
2023-05-05T10:44:23.055Z,5.20
2023-05-05T10:45:26.983Z,4.47
2023-05-05T10:46:30.042Z,4.07
2023-05-05T10:47:34.688Z,4.20
2023-05-05T10:48:42.725Z,4.37
2023-05-05T10:49:52.520Z,4.00
2023-05-05T10:51:01.183Z,4.05
2023-05-05T10:52:15.565Z,3.70
2023-05-05T10:53:22.747Z,4.70
2023-05-05T10:54:34.283Z,4.10
2023-05-05T10:55:46.178Z,4.18
2023-05-05T10:56:49.359Z,4.20
2023-05-05T10:57:56.242Z,4.32
2023-05-05T10:59:00.642Z,4.18
2023-05-05T11:00:05.293Z,5.27
2023-05-05T11:01:09.498Z,4.88
2023-05-05T11:02:25.004Z,4.63
2023-05-05T11:03:30.219Z,4.03
2023-05-05T11:04:33.437Z,4.53
2023-05-05T11:05:37.836Z,5.15
2023-05-05T11:06:40.448Z,4.40
2023-05-05T11:07:45.041Z,4.70
2023-05-05T11:08:48.862Z,4.88
2023-05-05T11:09:57.190Z,4.15
2023-05-05T11:11:01.947Z,4.40
2023-05-05T11:12:06.483Z,4.47
2023-05-05T11:13:22.166Z,5.32
2023-05-05T11:14:25.046Z,4.63
2023-05-05T11:15:38.054Z,4.80
2023-05-05T11:16:48.283Z,4.63
2023-05-05T11:17:50.979Z,4.07
2023-05-05T11:18:55.180Z,4.40
2023-05-05T11:19:57.756Z,4.95
2023-05-05T11:21:22.282Z,4.40
2023-05-05T11:22:24.638Z,4.90
2023-05-05T11:23:28.947Z,5.03
2023-05-05T11:24:33.512Z,4.50
2023-05-05T11:25:48.427Z,4.35
2023-05-05T11:26:53.247Z,4.68
2023-05-05T11:28:05.401Z,4.47
2023-05-05T11:29:11.095Z,4.35
2023-05-05T11:30:15.414Z,4.55
2023-05-05T11:31:21.026Z,4.50
2023-05-05T11:32:25.212Z,4.55
2023-05-05T11:33:29.261Z,4.60
2023-05-05T11:34:33.170Z,4.38
2023-05-05T11:35:56.580Z,4.35
2023-05-05T11:37:04.485Z,4.53
2023-05-05T11:38:08.922Z,3.53
2023-05-05T11:39:24.699Z,4.43
2023-05-05T11:40:34.897Z,4.38
2023-05-05T11:42:10.952Z,4.30
2023-05-05T11:43:19.736Z,4.45
2023-05-05T11:44:32.152Z,4.03
2023-05-05T11:45:36.632Z,4.17
2023-05-05T11:46:41.202Z,4.30
2023-05-05T11:47:44.999Z,3.95
2023-05-05T11:48:48.925Z,4.20
2023-05-05T11:49:52.821Z,4.55
2023-05-05T11:50:56.480Z,4.07
2023-05-05T11:52:00.264Z,4.93
2023-05-05T11:53:04.584Z,4.45
2023-05-05T11:54:07.343Z,4.22
2023-05-05T11:55:12.238Z,4.88
2023-05-05T11:56:19.441Z,4.60
2023-05-05T11:57:30.256Z,4.78
2023-05-05T11:58:34.061Z,4.40
2023-05-05T11:59:50.272Z,4.40
2023-05-05T12:00:53.902Z,4.28
2023-05-05T12:01:56.750Z,4.43
2023-05-05T12:03:01.020Z,4.40
2023-05-05T12:04:03.780Z,4.70
2023-05-05T12:05:08.818Z,4.65
2023-05-05T12:06:11.311Z,4.35
2023-05-05T12:07:16.789Z,5.10
2023-05-05T12:08:21.050Z,4.80
2023-05-05T12:09:24.175Z,4.68
2023-05-05T12:10:28.672Z,4.65
2023-05-05T12:11:31.116Z,5.05
2023-05-05T12:12:37.386Z,4.18
2023-05-05T12:13:40.143Z,4.97
2023-05-05T12:14:50.480Z,4.82
2023-05-05T12:15:53.138Z,5.10
2023-05-05T12:16:57.322Z,4.50
2023-05-05T12:18:03.030Z,4.43
2023-05-05T12:19:07.616Z,5.00
2023-05-05T12:20:12.481Z,4.45
2023-05-05T12:21:16.512Z,4.88
2023-05-05T12:22:25.112Z,4.68
2023-05-05T12:23:30.173Z,5.10
2023-05-05T12:24:33.639Z,4.22
2023-05-05T12:25:39.306Z,4.75
2023-05-05T12:26:42.130Z,4.70
2023-05-05T12:27:54.290Z,4.82
2023-05-05T12:28:56.920Z,4.87
2023-05-05T12:30:14.452Z,4.32
2023-05-05T12:31:17.078Z,4.75
2023-05-05T12:32:23.086Z,4.88
2023-05-05T12:33:26.962Z,4.07
2023-05-05T12:34:30.074Z,4.40
2023-05-05T12:35:35.169Z,4.80
2023-05-05T12:36:38.968Z,4.35
2023-05-05T12:37:43.547Z,3.97
2023-05-05T12:38:47.018Z,4.63
2023-05-05T12:39:49.944Z,4.07
2023-05-05T12:40:55.557Z,4.32
2023-05-05T12:42:03.587Z,4.80
2023-05-05T12:43:07.257Z,4.93
2023-05-05T12:44:10.836Z,4.85
2023-05-05T12:45:18.194Z,4.22
2023-05-05T12:46:22.409Z,3.55
2023-05-05T12:47:32.818Z,4.40
2023-05-05T12:48:38.374Z,4.63
2023-05-05T12:49:48.422Z,3.90
2023-05-05T12:50:52.743Z,3.90
2023-05-05T12:51:56.478Z,4.28
2023-05-05T12:53:00.322Z,3.67
2023-05-05T12:54:05.092Z,4.00
2023-05-05T12:55:10.153Z,4.20
2023-05-05T12:56:34.184Z,3.05
2023-05-05T12:57:38.247Z,3.60
2023-05-05T12:58:50.371Z,3.17
2023-05-05T12:59:55.101Z,2.33
2023-05-05T13:01:17.016Z,2.53
2023-05-05T13:02:22.319Z,2.50
2023-05-05T13:03:25.077Z,2.75
2023-05-05T13:04:30.115Z,3.00
2023-05-05T13:05:34.514Z,3.10
2023-05-05T13:06:39.028Z,2.58
2023-05-05T13:07:53.264Z,2.92
2023-05-05T13:08:57.071Z,3.10
2023-05-05T13:10:10.623Z,2.80
2023-05-05T13:11:13.897Z,2.60
2023-05-05T13:12:18.948Z,2.72
2023-05-05T13:13:21.566Z,2.30
2023-05-05T13:14:25.505Z,2.25
2023-05-05T13:15:29.354Z,2.10
2023-05-05T13:16:34.019Z,2.60
2023-05-05T13:17:37.749Z,2.50
2023-05-05T13:18:46.619Z,2.50
2023-05-05T13:19:50.914Z,2.40
2023-05-05T13:20:53.660Z,2.47
2023-05-05T13:21:58.312Z,2.42
2023-05-05T13:23:02.526Z,2.83
2023-05-05T13:24:21.225Z,2.43
2023-05-05T13:25:30.137Z,2.15
2023-05-05T13:26:32.695Z,2.53
2023-05-05T13:27:38.065Z,2.67
2023-05-05T13:28:41.470Z,2.10
2023-05-05T13:29:45.597Z,2.45
2023-05-05T13:30:48.246Z,2.65
2023-05-05T13:31:53.075Z,2.55
2023-05-05T13:32:56.573Z,2.35
2023-05-05T13:33:58.964Z,2.50
2023-05-05T13:35:02.460Z,2.30
2023-05-05T13:36:05.173Z,2.42
2023-05-05T13:37:08.819Z,1.90
2023-05-05T13:38:11.277Z,2.60
2023-05-05T13:39:14.933Z,2.22
2023-05-05T13:40:18.526Z,2.28
2023-05-05T13:41:20.976Z,2.53
2023-05-05T13:42:24.373Z,2.35
2023-05-05T13:43:26.789Z,2.40
2023-05-05T13:44:30.469Z,2.30
2023-05-05T13:45:33.752Z,2.90
2023-05-05T13:46:37.351Z,2.55
2023-05-05T13:47:43.270Z,2.50
2023-05-05T13:48:46.109Z,2.25
2023-05-05T13:49:50.202Z,2.30
2023-05-05T13:50:52.874Z,2.80
2023-05-05T13:51:56.612Z,2.58
2023-05-05T13:52:59.196Z,2.60
2023-05-05T13:54:03.541Z,2.63
2023-05-05T13:55:08.770Z,2.60
2023-05-05T13:56:11.573Z,2.30
2023-05-05T13:57:15.702Z,2.50
2023-05-05T13:58:17.924Z,2.60
2023-05-05T13:59:21.901Z,2.45
2023-05-05T14:00:24.400Z,2.10
2023-05-05T14:01:28.207Z,2.33
2023-05-05T14:02:32.273Z,2.60
2023-05-05T14:03:36.001Z,2.53
2023-05-05T14:04:39.461Z,2.42
2023-05-05T14:05:42.991Z,2.15
2023-05-05T14:06:46.375Z,2.30
2023-05-05T14:07:48.650Z,2.67
2023-05-05T14:08:51.960Z,2.05
2023-05-05T14:09:54.347Z,2.55
2023-05-05T14:10:57.766Z,2.40
2023-05-05T14:12:01.562Z,2.53
2023-05-05T14:13:03.973Z,2.45
2023-05-05T14:14:07.623Z,2.13
2023-05-05T14:15:11.989Z,2.22
2023-05-05T14:16:17.330Z,2.28
2023-05-05T14:17:19.866Z,2.50
2023-05-05T14:18:23.451Z,2.60
2023-05-05T14:19:28.490Z,1.88
2023-05-05T14:20:30.759Z,2.25
2023-05-05T14:21:34.766Z,2.75
2023-05-05T14:22:37.412Z,2.53
2023-05-05T14:23:40.946Z,2.40
2023-05-05T14:24:44.320Z,2.55
2023-05-05T14:25:46.709Z,2.88
2023-05-05T14:26:50.096Z,2.92
2023-05-05T14:27:53.082Z,2.87
2023-05-05T14:28:56.984Z,2.90
2023-05-05T14:29:59.491Z,2.75
2023-05-05T14:31:03.034Z,3.55